sensor_id;sensor_type;location;lat;lon;timestamp;pressure;altitude;pressure_sealevel;temperature;humidity
77454;BME280;66538;53.150;18.160;2023-09-19T00:00:24;100396.96;;;20.24;69.28
77454;BME280;66538;53.150;18.160;2023-09-19T00:03:14;100401.85;;;20.24;69.26
77454;BME280;66538;53.150;18.160;2023-09-19T00:05:41;100404.80;;;20.22;69.32
77454;BME280;66538;53.150;18.160;2023-09-19T00:08:10;100402.87;;;20.21;69.47
77454;BME280;66538;53.150;18.160;2023-09-19T00:10:40;100402.26;;;20.20;69.45
77454;BME280;66538;53.150;18.160;2023-09-19T00:13:08;100401.62;;;20.17;69.60
77454;BME280;66538;53.150;18.160;2023-09-19T00:15:41;100402.85;;;20.17;69.61
77454;BME280;66538;53.150;18.160;2023-09-19T00:18:08;100406.11;;;20.15;69.70
77454;BME280;66538;53.150;18.160;2023-09-19T00:20:36;100406.52;;;20.16;69.84
77454;BME280;66538;53.150;18.160;2023-09-19T00:23:04;100412.77;;;20.14;69.94
77454;BME280;66538;53.150;18.160;2023-09-19T00:25:31;100411.13;;;20.13;69.94
77454;BME280;66538;53.150;18.160;2023-09-19T00:27:58;100418.34;;;20.12;70.10
77454;BME280;66538;53.150;18.160;2023-09-19T00:30:25;100415.14;;;20.13;70.23
77454;BME280;66538;53.150;18.160;2023-09-19T00:32:51;100415.98;;;20.12;70.24
77454;BME280;66538;53.150;18.160;2023-09-19T00:35:19;100418.98;;;20.10;70.35
77454;BME280;66538;53.150;18.160;2023-09-19T00:37:45;100420.13;;;20.09;70.54
77454;BME280;66538;53.150;18.160;2023-09-19T00:40:12;100419.80;;;20.07;70.66
77454;BME280;66538;53.150;18.160;2023-09-19T00:42:39;100416.27;;;20.06;70.55
77454;BME280;66538;53.150;18.160;2023-09-19T00:45:08;100415.63;;;20.03;70.60
77454;BME280;66538;53.150;18.160;2023-09-19T00:47:40;100417.64;;;20.02;71.17
77454;BME280;66538;53.150;18.160;2023-09-19T00:50:08;100417.13;;;19.99;71.19
77454;BME280;66538;53.150;18.160;2023-09-19T00:52:36;100414.56;;;19.95;71.58
77454;BME280;66538;53.150;18.160;2023-09-19T00:55:06;100405.70;;;19.92;71.85
77454;BME280;66538;53.150;18.160;2023-09-19T00:57:34;100404.94;;;19.91;72.01
77454;BME280;66538;53.150;18.160;2023-09-19T01:00:04;100401.21;;;19.92;72.40
77454;BME280;66538;53.150;18.160;2023-09-19T01:02:37;100399.58;;;19.97;72.45
77454;BME280;66538;53.150;18.160;2023-09-19T01:05:04;100395.11;;;20.02;72.62
77454;BME280;66538;53.150;18.160;2023-09-19T01:07:32;100393.58;;;20.07;72.86
77454;BME280;66538;53.150;18.160;2023-09-19T01:10:03;100387.77;;;20.13;72.61
77454;BME280;66538;53.150;18.160;2023-09-19T01:13:03;100389.41;;;20.17;72.52
77454;BME280;66538;53.150;18.160;2023-09-19T01:26:06;100389.85;;;20.37;72.59
77454;BME280;66538;53.150;18.160;2023-09-19T01:28:52;100385.89;;;20.40;72.48
77454;BME280;66538;53.150;18.160;2023-09-19T01:31:24;100375.85;;;20.44;72.53
77454;BME280;66538;53.150;18.160;2023-09-19T01:33:56;100366.37;;;20.45;73.02
77454;BME280;66538;53.150;18.160;2023-09-19T01:36:23;100362.62;;;20.51;72.54
77454;BME280;66538;53.150;18.160;2023-09-19T01:38:51;100360.65;;;20.53;72.62
77454;BME280;66538;53.150;18.160;2023-09-19T01:41:35;100359.87;;;20.56;72.25
77454;BME280;66538;53.150;18.160;2023-09-19T01:44:09;100349.83;;;20.60;72.02
77454;BME280;66538;53.150;18.160;2023-09-19T01:46:41;100341.33;;;20.62;72.03
77454;BME280;66538;53.150;18.160;2023-09-19T01:52:04;100352.91;;;20.65;71.90
77454;BME280;66538;53.150;18.160;2023-09-19T01:54:39;100357.58;;;20.65;71.96
77454;BME280;66538;53.150;18.160;2023-09-19T01:57:22;100365.73;;;20.66;72.16
77454;BME280;66538;53.150;18.160;2023-09-19T02:00:01;100368.11;;;20.67;71.85
77454;BME280;66538;53.150;18.160;2023-09-19T02:02:42;100372.23;;;20.67;71.88
77454;BME280;66538;53.150;18.160;2023-09-19T02:05:11;100371.23;;;20.66;71.81
77454;BME280;66538;53.150;18.160;2023-09-19T02:07:39;100367.51;;;20.65;72.28
77454;BME280;66538;53.150;18.160;2023-09-19T02:10:07;100364.85;;;20.63;72.35
77454;BME280;66538;53.150;18.160;2023-09-19T02:12:36;100369.17;;;20.61;72.46
77454;BME280;66538;53.150;18.160;2023-09-19T02:15:05;100376.20;;;20.59;72.54
77454;BME280;66538;53.150;18.160;2023-09-19T02:17:34;100379.20;;;20.57;72.89
77454;BME280;66538;53.150;18.160;2023-09-19T02:20:00;100386.39;;;20.55;73.19
77454;BME280;66538;53.150;18.160;2023-09-19T02:22:28;100378.88;;;20.52;73.33
77454;BME280;66538;53.150;18.160;2023-09-19T02:24:56;100364.95;;;20.50;73.45
77454;BME280;66538;53.150;18.160;2023-09-19T02:27:27;100358.73;;;20.47;74.30
77454;BME280;66538;53.150;18.160;2023-09-19T02:29:53;100360.89;;;20.42;74.67
77454;BME280;66538;53.150;18.160;2023-09-19T02:32:20;100370.69;;;20.34;75.14
77454;BME280;66538;53.150;18.160;2023-09-19T02:34:47;100380.00;;;20.27;75.55
77454;BME280;66538;53.150;18.160;2023-09-19T02:37:15;100380.49;;;20.21;75.87
77454;BME280;66538;53.150;18.160;2023-09-19T02:39:42;100367.33;;;20.17;76.23
77454;BME280;66538;53.150;18.160;2023-09-19T02:42:09;100374.98;;;20.11;75.97
77454;BME280;66538;53.150;18.160;2023-09-19T02:44:36;100373.36;;;20.05;76.38
77454;BME280;66538;53.150;18.160;2023-09-19T02:47:04;100376.58;;;20.01;76.66
77454;BME280;66538;53.150;18.160;2023-09-19T02:49:31;100386.67;;;19.95;77.77
77454;BME280;66538;53.150;18.160;2023-09-19T02:51:57;100387.21;;;19.90;77.81
77454;BME280;66538;53.150;18.160;2023-09-19T02:54:25;100391.73;;;19.85;78.24
77454;BME280;66538;53.150;18.160;2023-09-19T02:56:52;100394.04;;;19.81;78.14
77454;BME280;66538;53.150;18.160;2023-09-19T02:59:20;100399.25;;;19.79;78.50
77454;BME280;66538;53.150;18.160;2023-09-19T03:01:46;100406.55;;;19.77;78.82
77454;BME280;66538;53.150;18.160;2023-09-19T03:04:14;100407.17;;;19.73;79.21
77454;BME280;66538;53.150;18.160;2023-09-19T03:06:46;100400.23;;;19.68;79.92
77454;BME280;66538;53.150;18.160;2023-09-19T03:09:17;100402.36;;;19.62;80.33
77454;BME280;66538;53.150;18.160;2023-09-19T03:11:45;100409.73;;;19.55;81.35
77454;BME280;66538;53.150;18.160;2023-09-19T03:14:13;100414.80;;;19.46;82.54
77454;BME280;66538;53.150;18.160;2023-09-19T03:16:41;100417.92;;;19.35;83.48
77454;BME280;66538;53.150;18.160;2023-09-19T03:19:09;100420.23;;;19.23;84.56
77454;BME280;66538;53.150;18.160;2023-09-19T03:21:37;100411.55;;;19.12;84.97
77454;BME280;66538;53.150;18.160;2023-09-19T03:24:06;100408.75;;;19.04;85.31
77454;BME280;66538;53.150;18.160;2023-09-19T03:26:33;100403.93;;;18.97;85.32
77454;BME280;66538;53.150;18.160;2023-09-19T03:29:03;100398.98;;;18.91;86.07
77454;BME280;66538;53.150;18.160;2023-09-19T03:31:33;100404.59;;;18.87;86.91
77454;BME280;66538;53.150;18.160;2023-09-19T03:34:03;100405.18;;;18.84;87.13
77454;BME280;66538;53.150;18.160;2023-09-19T03:36:30;100403.60;;;18.79;87.05
77454;BME280;66538;53.150;18.160;2023-09-19T03:38:57;100408.30;;;18.77;87.53
77454;BME280;66538;53.150;18.160;2023-09-19T03:41:24;100409.17;;;18.76;88.01
77454;BME280;66538;53.150;18.160;2023-09-19T03:43:51;100401.33;;;18.72;88.20
77454;BME280;66538;53.150;18.160;2023-09-19T03:46:18;100397.48;;;18.71;88.49
77454;BME280;66538;53.150;18.160;2023-09-19T03:48:46;100402.80;;;18.68;88.70
77454;BME280;66538;53.150;18.160;2023-09-19T03:51:13;100397.44;;;18.66;88.56
77454;BME280;66538;53.150;18.160;2023-09-19T03:53:40;100398.66;;;18.67;88.70
77454;BME280;66538;53.150;18.160;2023-09-19T03:56:07;100398.20;;;18.65;89.02
77454;BME280;66538;53.150;18.160;2023-09-19T03:58:34;100400.45;;;18.65;88.77
77454;BME280;66538;53.150;18.160;2023-09-19T04:01:05;100403.52;;;18.65;88.90
77454;BME280;66538;53.150;18.160;2023-09-19T04:03:35;100403.59;;;18.64;89.72
77454;BME280;66538;53.150;18.160;2023-09-19T04:06:16;100403.89;;;18.64;89.76
77454;BME280;66538;53.150;18.160;2023-09-19T04:08:44;100402.04;;;18.63;89.89
77454;BME280;66538;53.150;18.160;2023-09-19T04:11:12;100404.95;;;18.61;89.76
77454;BME280;66538;53.150;18.160;2023-09-19T04:13:39;100401.04;;;18.62;89.81
77454;BME280;66538;53.150;18.160;2023-09-19T04:16:06;100395.69;;;18.61;89.77
77454;BME280;66538;53.150;18.160;2023-09-19T04:18:37;100390.20;;;18.60;90.07
77454;BME280;66538;53.150;18.160;2023-09-19T04:21:05;100393.03;;;18.60;90.02
77454;BME280;66538;53.150;18.160;2023-09-19T04:23:32;100389.31;;;18.59;90.05
77454;BME280;66538;53.150;18.160;2023-09-19T04:25:59;100388.62;;;18.62;90.61
77454;BME280;66538;53.150;18.160;2023-09-19T04:28:26;100379.11;;;18.63;90.97
77454;BME280;66538;53.150;18.160;2023-09-19T04:30:54;100373.40;;;18.64;91.20
77454;BME280;66538;53.150;18.160;2023-09-19T04:33:21;100379.78;;;18.66;91.45
77454;BME280;66538;53.150;18.160;2023-09-19T04:35:51;100383.81;;;18.67;91.21
77454;BME280;66538;53.150;18.160;2023-09-19T04:38:20;100375.99;;;18.64;90.76
77454;BME280;66538;53.150;18.160;2023-09-19T04:40:47;100374.88;;;18.66;90.98
77454;BME280;66538;53.150;18.160;2023-09-19T04:43:14;100388.13;;;18.65;90.70
77454;BME280;66538;53.150;18.160;2023-09-19T04:45:41;100401.76;;;18.64;90.81
77454;BME280;66538;53.150;18.160;2023-09-19T04:48:08;100394.35;;;18.62;91.05
77454;BME280;66538;53.150;18.160;2023-09-19T04:50:35;100403.48;;;18.60;91.23
77454;BME280;66538;53.150;18.160;2023-09-19T04:53:01;100406.62;;;18.58;91.55
77454;BME280;66538;53.150;18.160;2023-09-19T04:55:29;100402.04;;;18.57;91.51
77454;BME280;66538;53.150;18.160;2023-09-19T04:57:56;100394.89;;;18.57;91.47
77454;BME280;66538;53.150;18.160;2023-09-19T05:00:23;100392.84;;;18.59;91.42
77454;BME280;66538;53.150;18.160;2023-09-19T05:02:51;100397.39;;;18.61;91.75
77454;BME280;66538;53.150;18.160;2023-09-19T05:05:18;100395.65;;;18.61;91.63
77454;BME280;66538;53.150;18.160;2023-09-19T05:07:45;100394.88;;;18.62;91.54
77454;BME280;66538;53.150;18.160;2023-09-19T05:10:13;100392.81;;;18.64;91.59
77454;BME280;66538;53.150;18.160;2023-09-19T05:12:41;100386.70;;;18.66;91.73
77454;BME280;66538;53.150;18.160;2023-09-19T05:15:08;100379.77;;;18.70;91.97
77454;BME280;66538;53.150;18.160;2023-09-19T05:17:35;100379.77;;;18.72;91.90
77454;BME280;66538;53.150;18.160;2023-09-19T05:20:02;100380.64;;;18.74;92.03
77454;BME280;66538;53.150;18.160;2023-09-19T05:22:32;100380.71;;;18.75;91.73
77454;BME280;66538;53.150;18.160;2023-09-19T05:24:59;100385.43;;;18.80;92.07
77454;BME280;66538;53.150;18.160;2023-09-19T05:27:25;100387.66;;;18.82;91.79
77454;BME280;66538;53.150;18.160;2023-09-19T05:29:52;100392.21;;;18.83;91.90
77454;BME280;66538;53.150;18.160;2023-09-19T05:32:19;100396.80;;;18.86;92.11
77454;BME280;66538;53.150;18.160;2023-09-19T05:34:46;100396.79;;;18.90;92.25
77454;BME280;66538;53.150;18.160;2023-09-19T05:37:19;100395.23;;;18.92;91.72
77454;BME280;66538;53.150;18.160;2023-09-19T05:39:46;100400.38;;;18.95;91.71
77454;BME280;66538;53.150;18.160;2023-09-19T05:42:13;100403.41;;;18.98;91.80
77454;BME280;66538;53.150;18.160;2023-09-19T05:44:40;100406.86;;;18.98;91.73
77454;BME280;66538;53.150;18.160;2023-09-19T05:47:06;100413.63;;;18.99;91.64
77454;BME280;66538;53.150;18.160;2023-09-19T05:49:35;100412.58;;;19.01;91.82
77454;BME280;66538;53.150;18.160;2023-09-19T05:52:05;100411.77;;;19.01;91.94
77454;BME280;66538;53.150;18.160;2023-09-19T05:54:33;100414.09;;;18.97;91.60
77454;BME280;66538;53.150;18.160;2023-09-19T05:57:00;100413.05;;;18.97;91.33
77454;BME280;66538;53.150;18.160;2023-09-19T05:59:28;100411.48;;;18.95;91.43
77454;BME280;66538;53.150;18.160;2023-09-19T06:01:55;100413.86;;;18.98;91.28
77454;BME280;66538;53.150;18.160;2023-09-19T06:04:21;100410.96;;;19.00;91.16
77454;BME280;66538;53.150;18.160;2023-09-19T06:06:48;100406.02;;;18.98;91.01
77454;BME280;66538;53.150;18.160;2023-09-19T06:09:15;100410.46;;;18.96;90.95
77454;BME280;66538;53.150;18.160;2023-09-19T06:11:42;100410.15;;;18.95;90.89
77454;BME280;66538;53.150;18.160;2023-09-19T06:14:09;100417.02;;;18.93;90.85
77454;BME280;66538;53.150;18.160;2023-09-19T06:16:36;100422.25;;;18.90;90.82
77454;BME280;66538;53.150;18.160;2023-09-19T06:19:07;100414.98;;;18.87;91.03
77454;BME280;66538;53.150;18.160;2023-09-19T06:21:36;100424.38;;;18.84;90.88
77454;BME280;66538;53.150;18.160;2023-09-19T06:24:03;100426.56;;;18.82;90.80
77454;BME280;66538;53.150;18.160;2023-09-19T06:26:29;100426.15;;;18.79;91.32
77454;BME280;66538;53.150;18.160;2023-09-19T06:28:57;100429.27;;;18.77;91.15
77454;BME280;66538;53.150;18.160;2023-09-19T06:31:26;100432.98;;;18.76;91.11
77454;BME280;66538;53.150;18.160;2023-09-19T06:33:52;100441.56;;;18.74;91.04
77454;BME280;66538;53.150;18.160;2023-09-19T06:36:19;100441.92;;;18.73;90.98
77454;BME280;66538;53.150;18.160;2023-09-19T06:38:46;100450.50;;;18.74;90.94
77454;BME280;66538;53.150;18.160;2023-09-19T06:41:13;100458.79;;;18.73;90.80
77454;BME280;66538;53.150;18.160;2023-09-19T06:43:42;100456.69;;;18.72;90.73
77454;BME280;66538;53.150;18.160;2023-09-19T06:46:08;100457.25;;;18.70;90.48
77454;BME280;66538;53.150;18.160;2023-09-19T06:48:36;100457.38;;;18.71;90.48
77454;BME280;66538;53.150;18.160;2023-09-19T06:51:02;100456.14;;;18.71;90.37
77454;BME280;66538;53.150;18.160;2023-09-19T06:53:32;100460.37;;;18.73;90.36
77454;BME280;66538;53.150;18.160;2023-09-19T06:55:59;100460.40;;;18.76;90.27
77454;BME280;66538;53.150;18.160;2023-09-19T06:58:25;100466.14;;;18.78;90.34
77454;BME280;66538;53.150;18.160;2023-09-19T07:00:52;100467.44;;;18.80;90.34
77454;BME280;66538;53.150;18.160;2023-09-19T07:03:19;100471.56;;;18.83;90.38
77454;BME280;66538;53.150;18.160;2023-09-19T07:05:48;100475.95;;;18.86;90.45
77454;BME280;66538;53.150;18.160;2023-09-19T07:08:15;100477.80;;;18.89;90.22
77454;BME280;66538;53.150;18.160;2023-09-19T07:10:42;100478.00;;;18.92;90.07
77454;BME280;66538;53.150;18.160;2023-09-19T07:13:15;100482.39;;;18.96;89.82
77454;BME280;66538;53.150;18.160;2023-09-19T07:15:44;100477.48;;;18.98;89.71
77454;BME280;66538;53.150;18.160;2023-09-19T07:18:14;100480.84;;;19.03;89.36
77454;BME280;66538;53.150;18.160;2023-09-19T07:20:43;100482.84;;;19.10;89.24
77454;BME280;66538;53.150;18.160;2023-09-19T07:23:12;100488.00;;;19.15;89.11
77454;BME280;66538;53.150;18.160;2023-09-19T07:25:40;100481.02;;;19.21;89.18
77454;BME280;66538;53.150;18.160;2023-09-19T07:28:07;100482.05;;;19.34;88.53
77454;BME280;66538;53.150;18.160;2023-09-19T07:30:36;100484.69;;;19.47;88.20
77454;BME280;66538;53.150;18.160;2023-09-19T07:33:08;100486.80;;;19.60;87.73
77454;BME280;66538;53.150;18.160;2023-09-19T07:35:38;100482.80;;;19.68;87.27
77454;BME280;66538;53.150;18.160;2023-09-19T07:38:08;100482.76;;;19.74;86.48
77454;BME280;66538;53.150;18.160;2023-09-19T07:40:38;100491.09;;;19.75;86.63
77454;BME280;66538;53.150;18.160;2023-09-19T07:43:05;100496.04;;;19.77;86.67
77454;BME280;66538;53.150;18.160;2023-09-19T07:45:33;100496.12;;;19.79;86.28
77454;BME280;66538;53.150;18.160;2023-09-19T07:48:00;100500.30;;;19.83;86.14
77454;BME280;66538;53.150;18.160;2023-09-19T07:50:30;100496.38;;;19.85;85.57
77454;BME280;66538;53.150;18.160;2023-09-19T07:52:57;100501.13;;;19.86;85.18
77454;BME280;66538;53.150;18.160;2023-09-19T07:55:23;100498.88;;;19.87;84.65
77454;BME280;66538;53.150;18.160;2023-09-19T07:57:52;100506.36;;;19.87;84.54
77454;BME280;66538;53.150;18.160;2023-09-19T08:00:19;100507.28;;;19.82;84.46
77454;BME280;66538;53.150;18.160;2023-09-19T08:02:46;100515.53;;;19.74;84.52
77454;BME280;66538;53.150;18.160;2023-09-19T08:05:14;100513.75;;;19.63;84.99
77454;BME280;66538;53.150;18.160;2023-09-19T08:07:45;100525.88;;;19.56;85.37
77454;BME280;66538;53.150;18.160;2023-09-19T08:10:15;100522.42;;;19.48;85.59
77454;BME280;66538;53.150;18.160;2023-09-19T08:12:43;100524.98;;;19.40;85.95
77454;BME280;66538;53.150;18.160;2023-09-19T08:17:40;100523.89;;;19.34;86.16
77454;BME280;66538;53.150;18.160;2023-09-19T08:20:08;100526.04;;;19.31;86.36
77454;BME280;66538;53.150;18.160;2023-09-19T08:22:53;100528.65;;;19.37;86.33
77454;BME280;66538;53.150;18.160;2023-09-19T08:25:23;100533.03;;;19.52;85.94
77454;BME280;66538;53.150;18.160;2023-09-19T08:27:52;100530.34;;;19.65;85.64
77454;BME280;66538;53.150;18.160;2023-09-19T08:30:20;100532.16;;;19.79;85.32
77454;BME280;66538;53.150;18.160;2023-09-19T08:32:50;100531.21;;;19.93;84.97
77454;BME280;66538;53.150;18.160;2023-09-19T08:35:17;100541.98;;;20.12;84.58
77454;BME280;66538;53.150;18.160;2023-09-19T08:37:43;100542.85;;;20.20;83.94
77454;BME280;66538;53.150;18.160;2023-09-19T08:40:13;100545.90;;;20.19;84.05
77454;BME280;66538;53.150;18.160;2023-09-19T08:42:55;100546.88;;;20.18;83.49
77454;BME280;66538;53.150;18.160;2023-09-19T08:45:23;100552.75;;;20.15;83.44
77454;BME280;66538;53.150;18.160;2023-09-19T08:51:07;100563.17;;;20.16;83.46
77454;BME280;66538;53.150;18.160;2023-09-19T08:56:26;100569.76;;;20.38;82.17
77454;BME280;66538;53.150;18.160;2023-09-19T08:59:02;100569.77;;;20.46;81.69
77454;BME280;66538;53.150;18.160;2023-09-19T09:01:31;100569.65;;;20.58;81.10
77454;BME280;66538;53.150;18.160;2023-09-19T09:03:59;100570.41;;;20.68;80.81
77454;BME280;66538;53.150;18.160;2023-09-19T09:06:28;100569.21;;;20.82;80.19
77454;BME280;66538;53.150;18.160;2023-09-19T09:08:55;100563.72;;;20.94;79.72
77454;BME280;66538;53.150;18.160;2023-09-19T09:11:23;100562.34;;;21.08;78.53
77454;BME280;66538;53.150;18.160;2023-09-19T09:13:51;100563.39;;;21.18;77.95
77454;BME280;66538;53.150;18.160;2023-09-19T09:16:17;100562.52;;;21.27;77.71
77454;BME280;66538;53.150;18.160;2023-09-19T09:18:45;100563.82;;;21.35;77.39
77454;BME280;66538;53.150;18.160;2023-09-19T09:21:13;100568.20;;;21.41;77.21
77454;BME280;66538;53.150;18.160;2023-09-19T09:23:42;100568.55;;;21.40;77.09
77454;BME280;66538;53.150;18.160;2023-09-19T09:26:08;100577.50;;;21.33;76.26
77454;BME280;66538;53.150;18.160;2023-09-19T09:28:36;100574.05;;;21.23;76.39
77454;BME280;66538;53.150;18.160;2023-09-19T09:31:37;100578.10;;;21.10;77.23
77454;BME280;66538;53.150;18.160;2023-09-19T09:34:04;100586.27;;;20.98;77.27
77454;BME280;66538;53.150;18.160;2023-09-19T09:36:36;100585.36;;;21.01;77.33
77454;BME280;66538;53.150;18.160;2023-09-19T09:39:03;100585.52;;;21.17;76.11
77454;BME280;66538;53.150;18.160;2023-09-19T09:41:42;100582.16;;;21.32;76.14
77454;BME280;66538;53.150;18.160;2023-09-19T09:44:18;100577.30;;;21.49;76.15
77454;BME280;66538;53.150;18.160;2023-09-19T09:46:47;100572.71;;;21.74;75.71
77454;BME280;66538;53.150;18.160;2023-09-19T09:49:26;100575.91;;;21.97;74.37
77454;BME280;66538;53.150;18.160;2023-09-19T09:52:06;100577.60;;;22.19;73.41
77454;BME280;66538;53.150;18.160;2023-09-19T09:55:03;100582.76;;;22.40;72.81
77454;BME280;66538;53.150;18.160;2023-09-19T09:57:34;100578.42;;;22.59;71.39
77454;BME280;66538;53.150;18.160;2023-09-19T10:00:02;100582.61;;;22.70;68.93
77454;BME280;66538;53.150;18.160;2023-09-19T10:02:39;100577.33;;;22.65;68.87
77454;BME280;66538;53.150;18.160;2023-09-19T10:05:18;100576.54;;;22.54;68.73
77454;BME280;66538;53.150;18.160;2023-09-19T10:07:55;100575.23;;;22.42;68.62
77454;BME280;66538;53.150;18.160;2023-09-19T10:10:34;100578.46;;;22.47;69.81
77454;BME280;66538;53.150;18.160;2023-09-19T10:13:20;100584.23;;;22.57;68.93
77454;BME280;66538;53.150;18.160;2023-09-19T10:15:51;100587.20;;;22.73;68.14
77454;BME280;66538;53.150;18.160;2023-09-19T10:18:23;100591.95;;;22.84;67.28
77454;BME280;66538;53.150;18.160;2023-09-19T10:20:50;100588.59;;;22.86;65.88
77454;BME280;66538;53.150;18.160;2023-09-19T10:23:19;100586.08;;;22.89;65.98
77454;BME280;66538;53.150;18.160;2023-09-19T10:25:50;100598.55;;;22.99;64.89
77454;BME280;66538;53.150;18.160;2023-09-19T10:28:20;100603.10;;;23.03;63.93
77454;BME280;66538;53.150;18.160;2023-09-19T10:30:51;100612.83;;;23.04;64.05
77454;BME280;66538;53.150;18.160;2023-09-19T10:33:23;100622.41;;;23.07;62.89
77454;BME280;66538;53.150;18.160;2023-09-19T10:35:53;100624.65;;;23.04;62.78
77454;BME280;66538;53.150;18.160;2023-09-19T10:38:25;100628.45;;;23.02;62.00
77454;BME280;66538;53.150;18.160;2023-09-19T10:40:55;100622.09;;;22.98;62.16
77454;BME280;66538;53.150;18.160;2023-09-19T10:43:29;100637.14;;;22.96;62.12
77454;BME280;66538;53.150;18.160;2023-09-19T10:46:00;100628.71;;;22.97;61.26
77454;BME280;66538;53.150;18.160;2023-09-19T10:48:27;100631.07;;;23.11;61.00
77454;BME280;66538;53.150;18.160;2023-09-19T10:53:41;100623.36;;;23.43;59.02
77454;BME280;66538;53.150;18.160;2023-09-19T10:56:10;100618.56;;;23.57;59.12
77454;BME280;66538;53.150;18.160;2023-09-19T10:58:44;100617.81;;;23.74;58.58
77454;BME280;66538;53.150;18.160;2023-09-19T11:01:11;100615.29;;;23.85;58.76
77454;BME280;66538;53.150;18.160;2023-09-19T11:03:38;100615.55;;;23.89;58.13
77454;BME280;66538;53.150;18.160;2023-09-19T11:06:16;100608.23;;;23.87;57.86
77454;BME280;66538;53.150;18.160;2023-09-19T11:30:33;100622.41;;;23.74;55.48
77454;BME280;66538;53.150;18.160;2023-09-19T11:33:26;100625.83;;;23.69;54.88
77454;BME280;66538;53.150;18.160;2023-09-19T11:36:00;100616.19;;;23.85;55.16
77454;BME280;66538;53.150;18.160;2023-09-19T11:43:53;100615.64;;;24.98;52.39
77454;BME280;66538;53.150;18.160;2023-09-19T11:46:26;100616.46;;;25.36;51.07
77454;BME280;66538;53.150;18.160;2023-09-19T11:48:54;100621.48;;;25.53;48.77
77454;BME280;66538;53.150;18.160;2023-09-19T11:51:23;100626.92;;;25.56;47.76
77454;BME280;66538;53.150;18.160;2023-09-19T11:53:57;100631.48;;;25.54;46.61
77454;BME280;66538;53.150;18.160;2023-09-19T11:56:27;100630.95;;;25.41;46.66
77454;BME280;66538;53.150;18.160;2023-09-19T11:58:56;100632.20;;;25.21;45.73
77454;BME280;66538;53.150;18.160;2023-09-19T12:01:31;100640.20;;;25.04;46.64
77454;BME280;66538;53.150;18.160;2023-09-19T12:04:01;100641.61;;;24.95;46.16
77454;BME280;66538;53.150;18.160;2023-09-19T12:06:30;100642.55;;;24.90;46.46
77454;BME280;66538;53.150;18.160;2023-09-19T12:08:59;100641.42;;;24.86;47.33
77454;BME280;66538;53.150;18.160;2023-09-19T12:11:30;100647.09;;;24.80;46.62
77454;BME280;66538;53.150;18.160;2023-09-19T12:13:59;100648.30;;;25.00;45.78
77454;BME280;66538;53.150;18.160;2023-09-19T12:16:30;100652.52;;;25.17;44.92
77454;BME280;66538;53.150;18.160;2023-09-19T12:18:57;100657.61;;;25.91;42.92
77454;BME280;66538;53.150;18.160;2023-09-19T12:21:44;100654.63;;;26.37;41.39
77454;BME280;66538;53.150;18.160;2023-09-19T12:24:13;100659.17;;;26.36;41.25
77454;BME280;66538;53.150;18.160;2023-09-19T12:26:43;100662.72;;;26.91;38.78
77454;BME280;66538;53.150;18.160;2023-09-19T12:29:16;100659.80;;;27.71;38.21
77454;BME280;66538;53.150;18.160;2023-09-19T12:31:57;100652.91;;;28.45;37.81
77454;BME280;66538;53.150;18.160;2023-09-19T12:34:26;100656.18;;;29.32;35.51
77454;BME280;66538;53.150;18.160;2023-09-19T12:37:07;100669.31;;;29.89;34.17
77454;BME280;66538;53.150;18.160;2023-09-19T12:40:08;100669.57;;;29.93;33.31
77454;BME280;66538;53.150;18.160;2023-09-19T12:42:44;100666.54;;;30.60;33.46
77454;BME280;66538;53.150;18.160;2023-09-19T12:45:12;100662.67;;;30.98;32.18
77454;BME280;66538;53.150;18.160;2023-09-19T12:47:40;100664.59;;;30.21;33.28
77454;BME280;66538;53.150;18.160;2023-09-19T12:50:13;100667.74;;;30.56;33.23
77454;BME280;66538;53.150;18.160;2023-09-19T12:52:42;100665.88;;;30.96;31.67
77454;BME280;66538;53.150;18.160;2023-09-19T12:55:20;100675.30;;;30.84;32.81
77454;BME280;66538;53.150;18.160;2023-09-19T13:00:36;100676.61;;;30.28;32.93
77454;BME280;66538;53.150;18.160;2023-09-19T13:03:18;100681.94;;;30.86;32.79
77454;BME280;66538;53.150;18.160;2023-09-19T13:06:02;100676.39;;;31.28;31.26
77454;BME280;66538;53.150;18.160;2023-09-19T13:08:39;100671.77;;;31.54;31.50
77454;BME280;66538;53.150;18.160;2023-09-19T13:11:13;100676.75;;;31.98;30.68
77454;BME280;66538;53.150;18.160;2023-09-19T13:13:49;100669.02;;;32.46;29.83
77454;BME280;66538;53.150;18.160;2023-09-19T13:16:20;100671.90;;;33.10;28.57
77454;BME280;66538;53.150;18.160;2023-09-19T13:18:53;100671.10;;;33.67;27.79
77454;BME280;66538;53.150;18.160;2023-09-19T13:21:32;100672.94;;;33.89;27.36
77454;BME280;66538;53.150;18.160;2023-09-19T13:24:23;100678.35;;;32.86;27.50
77454;BME280;66538;53.150;18.160;2023-09-19T13:26:54;100681.13;;;31.42;29.04
77454;BME280;66538;53.150;18.160;2023-09-19T13:29:21;100680.57;;;32.01;28.28
77454;BME280;66538;53.150;18.160;2023-09-19T13:31:50;100681.54;;;32.70;28.17
77454;BME280;66538;53.150;18.160;2023-09-19T13:34:17;100687.73;;;31.62;28.52
77454;BME280;66538;53.150;18.160;2023-09-19T13:36:44;100690.33;;;31.55;28.63
77454;BME280;66538;53.150;18.160;2023-09-19T13:39:15;100688.20;;;32.11;27.52
77454;BME280;66538;53.150;18.160;2023-09-19T13:41:47;100692.85;;;32.98;26.93
77454;BME280;66538;53.150;18.160;2023-09-19T13:44:14;100682.45;;;33.87;26.18
77454;BME280;66538;53.150;18.160;2023-09-19T13:46:43;100681.70;;;34.63;25.10
77454;BME280;66538;53.150;18.160;2023-09-19T13:49:12;100680.39;;;35.31;24.06